Latest Weather Observations for Renmark Airport

IDS60801

Issued at 7:31 am CDT Tuesday 6 December 2022 (issued every 10 minutes, with the page automatically refreshed every 10 minutes)

About weather observations | Map of weather stations | Latest weather observations for SA | Other Formats
Station Details ID: 024048 Name: RENMARK AERO Lat: -34.20 Lon: 140.68 Height: 31.5 m
Data from the previous 72 hours. | See also: Recent months at Renmark Airport
Date/Time
CDT
Temp
°C
App
Temp
°C
Dew
Point
°C
Rel
Hum
%
Delta-T
°C
Wind Press
QNH
hPa
Press
MSL
hPa
Rain since
9am
mm
Dir  Spd
km/h
Gust
km/h
Spd
kts
Gust
kts
06/07:30am 13.4 8.6 5.8 60 3.6 SE 20 26 11 14 1012.7 1012.6 0.0
06/07:00am 12.8 8.6 5.9 63 3.3 SE 17 24 9 13 1012.8 1012.7 0.0
06/06:30am 11.7 7.5 5.8 67 2.8 SE 17 24 9 13 1012.4 1012.3 0.0
06/06:00am 11.5 7.2 5.4 66 2.8 SE 17 22 9 12 1012.2 1012.1 0.0
06/05:30am 11.6 7.4 5.5 66 2.8 SE 17 22 9 12 1012.0 1011.9 0.0
06/05:00am 12.1 7.5 5.5 64 3.1 SE 19 28 10 15 1011.9 1011.8 0.0
06/04:30am 12.8 8.6 5.5 61 3.4 SSE 17 26 9 14 1011.8 1011.7 0.0
06/04:00am 13.1 8.5 5.5 60 3.6 SE 19 26 10 14 1012.0 1011.9 0.0
06/03:30am 13.5 9.7 5.7 59 3.7 SSE 15 20 8 11 1012.4 1012.3 0.0
06/03:00am 14.1 10.3 5.7 57 4.0 SSE 15 20 8 11 1012.7 1012.6 0.0
06/02:30am 13.9 10.5 5.8 58 3.8 S 13 19 7 10 1013.1 1013.0 0.0
06/02:00am 14.2 10.7 5.3 55 4.2 S 13 19 7 10 1013.2 1013.1 0.0
06/01:30am 14.8 10.1 5.3 53 4.5 S 19 26 10 14 1013.0 1012.9 0.0
06/01:00am 15.5 11.4 6.2 54 4.5 S 17 22 9 12 1013.1 1013.0 0.0
06/12:30am 16.1 11.8 7.1 55 4.5 SSW 19 26 10 14 1013.3 1013.2 0.0
06/12:00am 16.7 12.5 7.4 54 4.7 SSW 19 28 10 15 1013.1 1013.0 0.0
 
Date/Time
CDT
Temp
°C
App
Temp
°C
Dew
Point
°C
Rel
Hum
%
Delta-T
°C
Wind Press
QNH
hPa
Press
MSL
hPa
Rain since
9am
mm
Dir  Spd
km/h
Gust
km/h
Spd
kts
Gust
kts
05/11:30pm 17.3 12.9 7.4 52 5.0 SSW 20 30 11 16 1013.2 1013.1 0.0
05/11:00pm 17.7 13.6 8.0 53 4.9 SSW 19 26 10 14 1013.4 1013.3 0.0
05/10:30pm 18.4 13.6 7.5 49 5.5 SSW 22 32 12 17 1013.4 1013.3 0.0
05/10:00pm 19.2 14.7 6.0 42 6.5 SSW 19 32 10 17 1013.2 1013.1 0.0
05/09:30pm 20.0 15.5 4.1 35 7.6 S 17 22 9 12 1012.6 1012.5 0.0
05/09:00pm 20.5 16.4 4.1 34 7.9 S 15 20 8 11 1012.3 1012.2 0.0
05/08:30pm 21.5 16.5 3.7 31 8.6 S 19 30 10 16 1012.2 1012.1 0.0
05/08:00pm 22.7 17.7 3.8 29 9.2 SSW 19 28 10 15 1012.2 1012.1 0.0
05/07:30pm 23.6 18.2 4.5 29 9.5 SSW 22 32 12 17 1011.7 1011.6 0.0
05/07:00pm 24.5 19.2 4.8 28 9.9 SSW 22 32 12 17 1011.3 1011.2 0.0
05/06:30pm 25.0 19.4 5.2 28 10.0 SSW 24 32 13 17 1011.2 1011.1 0.0
05/06:00pm 25.5 19.5 5.1 27 10.4 SSW 26 37 14 20 1011.2 1011.1 0.0
05/05:30pm 25.7 20.2 5.8 28 10.2 SSW 24 35 13 19 1011.2 1011.1 0.0
05/05:00pm 25.8 20.4 6.4 29 10.1 SW 24 39 13 21 1011.6 1011.5 0.0
05/04:30pm 25.8 20.5 6.9 30 9.9 SW 24 35 13 19 1011.7 1011.6 0.0
05/04:00pm 25.7 19.6 6.8 30 9.9 WSW 28 43 15 23 1012.0 1011.9 0.0
05/03:30pm 25.5 21.6 7.1 31 9.7 SSW 17 33 9 18 1012.2 1012.1 0.0
05/03:00pm 25.0 20.4 8.1 34 9.0 SSW 22 35 12 19 1012.3 1012.2 0.0
05/02:30pm 26.0 21.1 8.5 33 9.5 SSW 24 39 13 21 1012.2 1012.1 0.0
05/02:00pm 24.9 19.9 8.0 34 9.0 SSW 24 37 13 20 1012.2 1012.1 0.0
05/01:30pm 24.6 19.5 7.7 34 8.9 SSW 24 43 13 23 1012.3 1012.2 0.0
05/01:00pm 23.9 19.0 8.3 37 8.3 S 24 37 13 20 1012.7 1012.6 0.0
05/12:30pm 23.1 18.7 9.1 41 7.5 SSW 22 37 12 20 1013.3 1013.2 0.0
05/12:00pm 21.4 17.1 9.3 46 6.5 SSW 22 35 12 19 1013.6 1013.5 0.0
05/11:30am 21.3 17.4 9.5 47 6.3 SSW 20 35 11 19 1013.8 1013.7 0.0
05/11:00am 20.5 16.2 9.4 49 5.9 SSW 22 35 12 19 1013.5 1013.4 0.0
05/10:30am 19.5 14.8 9.1 51 5.5 SSW 24 33 13 18 1013.6 1013.5 0.0
05/10:00am 18.4 13.1 9.7 57 4.6 SW 28 37 15 20 1013.7 1013.6 0.0
05/09:30am 18.0 13.5 9.9 59 4.3 SSW 24 35 13 19 1013.6 1013.5 0.0
05/09:00am 16.9 12.4 10.1 64 3.6 SW 24 37 13 20 1013.9 1013.8 0.0
05/08:30am 17.2 12.8 10.3 64 3.7 SSW 24 32 13 17 1013.5 1013.4 0.0
05/08:00am 16.9 13.3 10.5 66 3.4 SSW 20 32 11 17 1013.2 1013.1 0.0
05/07:30am 16.7 13.2 10.8 68 3.2 SSW 20 33 11 18 1013.1 1013.0 0.0
05/07:00am 16.7 12.9 11.0 69 3.1 SW 22 35 12 19 1013.0 1012.9 0.0
05/06:30am 16.6 12.5 11.3 71 2.9 SW 24 33 13 18 1012.8 1012.7 0.0
05/06:00am 16.6 12.9 11.5 72 2.8 SW 22 35 12 19 1012.4 1012.3 0.0
05/05:30am 16.7 13.0 11.4 71 2.9 SW 22 35 12 19 1012.0 1011.9 0.0
05/05:00am 16.7 12.5 11.2 70 3.0 SW 24 37 13 20 1012.0 1011.9 0.0
05/04:30am 16.7 13.0 11.6 72 2.8 SW 22 35 12 19 1011.8 1011.7 0.0
05/04:00am 16.7 14.0 11.6 72 2.8 SW 17 32 9 17 1011.4 1011.3 0.0
05/03:30am 16.7 13.1 11.8 73 2.7 SW 22 33 12 18 1011.0 1010.9 0.0
05/03:00am 16.9 13.7 12.0 73 2.7 SW 20 30 11 16 1011.3 1011.2 0.0
05/02:30am 17.0 13.4 11.9 72 2.8 SW 22 32 12 17 1011.4 1011.3 0.0
05/02:00am 17.1 12.9 12.4 74 2.6 SW 26 35 14 19 1011.1 1011.0 0.0
05/01:30am 17.3 14.3 12.6 74 2.6 SW 20 28 11 15 1011.5 1011.4 0.0
05/01:00am 17.3 15.3 12.6 74 2.6 SW 15 20 8 11 1011.4 1011.3 0.0
05/12:30am 17.4 14.6 12.7 74 2.6 SW 19 28 10 15 1011.7 1011.6 0.0
05/12:00am 17.2 13.6 12.9 76 2.4 SW 24 39 13 21 1011.8 1011.7 0.0
 
Date/Time
CDT
Temp
°C
App
Temp
°C
Dew
Point
°C
Rel
Hum
%
Delta-T
°C
Wind Press
QNH
hPa
Press
MSL
hPa
Rain since
9am
mm
Dir  Spd
km/h
Gust
km/h
Spd
kts
Gust
kts
04/11:41pm 17.7 13.3 12.8 73 2.7 SW 28 46 15 25 1012.0 1011.9 0.0
04/11:30pm 17.8 13.5 13.1 74 2.6 SW 28 39 15 21 1012.0 1011.9 0.0
04/11:00pm 19.0 15.0 13.0 68 3.4 SW 26 35 14 19 1011.3 1011.2 0.0
04/10:30pm 20.1 16.4 12.6 62 4.2 SW 24 35 13 19 1010.8 1010.7 0.0
04/10:00pm 22.0 17.9 13.9 60 4.7 SW 28 41 15 22 1010.4 1010.3 0.0
04/09:30pm 25.0 20.1 11.2 42 7.8 SW 28 43 15 23 1009.2 1009.1 0.0
04/09:00pm 27.5 23.6 10.7 35 9.5 SW 22 35 12 19 1008.3 1008.2 0.0
04/08:30pm 30.9 27.6 8.0 24 12.6 SSW 15 28 8 15 1007.4 1007.3 0.0
04/08:00pm 32.0 29.0 7.6 22 13.4 S 13 17 7 9 1006.8 1006.7 0.0
04/07:30pm 34.0 31.0 7.9 20 14.6 S 13 19 7 10 1006.5 1006.4 0.0
04/07:00pm 33.1 31.6 9.2 23 13.5 NNE 7 11 4 6 1006.1 1006.0 0.0
04/06:30pm 35.6 32.0 5.0 15 16.5 WNW 13 17 7 9 1006.1 1006.0 0.0
04/06:00pm 37.3 33.6 4.3 13 17.7 WNW 13 20 7 11 1006.1 1006.0 0.0
04/05:30pm 37.7 34.6 3.4 12 18.2 W 9 15 5 8 1006.2 1006.1 0.0
04/05:00pm 37.9 33.8 2.4 11 18.5 W 13 26 7 14 1006.4 1006.3 0.0
04/04:30pm 38.0 34.1 1.1 10 19.0 NW 11 17 6 9 1006.7 1006.6 0.0
04/04:00pm 37.5 33.2 0.7 10 18.7 WSW 13 20 7 11 1007.1 1007.0 0.0
04/03:30pm 37.5 32.8 3.3 12 18.1 W 17 28 9 15 1007.5 1007.4 0.0
04/03:00pm 37.2 32.3 4.2 13 17.7 SW 19 28 10 15 1007.9 1007.8 0.0
04/02:30pm 37.0 32.7 5.1 14 17.3 WNW 17 28 9 15 1008.3 1008.2 0.0
04/02:00pm 37.1 34.1 6.2 15 17.0 W 11 20 6 11 1008.8 1008.7 0.0
04/01:30pm 37.2 33.7 5.3 14 17.4 NW 13 22 7 12 1009.3 1009.2 0.0
04/01:00pm 36.2 32.1 6.4 16 16.4 W 17 28 9 15 1009.8 1009.7 0.0
04/12:30pm 35.9 31.8 6.2 16 16.3 NW 17 22 9 12 1010.3 1010.2 0.0
04/12:00pm 35.1 31.2 8.8 20 15.0 NNW 19 30 10 16 1010.7 1010.6 0.0
04/11:30am 33.5 29.9 8.2 21 14.2 NNW 17 30 9 16 1011.1 1011.0 0.0
04/11:00am 33.2 28.5 7.9 21 14.1 NNW 22 32 12 17 1011.5 1011.4 0.0
04/10:30am 32.1 27.9 8.4 23 13.2 NNW 20 32 11 17 1011.6 1011.5 0.0
04/10:00am 31.1 26.1 8.2 24 12.7 NNW 24 37 13 20 1011.9 1011.8 0.0
04/09:30am 30.0 24.9 7.8 25 12.1 NNW 24 33 13 18 1012.3 1012.2 0.0
04/09:00am 29.2 25.3 8.8 28 11.3 NNW 19 24 10 13 1012.4 1012.3 0.0
04/08:30am 27.4 24.4 9.3 32 10.0 N 15 22 8 12 1012.4 1012.3 0.0
04/08:00am 25.6 22.3 9.4 36 8.9 N 17 24 9 13 1012.3 1012.2 0.0
04/07:30am 24.2 21.9 10.5 42 7.6 NNE 13 17 7 9 1012.0 1011.9 0.0
04/07:00am 21.5 20.1 12.1 55 5.3 NE 11 15 6 8 1011.6 1011.5 0.0
04/06:30am 19.0 17.5 11.8 63 4.0 NNE 11 17 6 9 1011.3 1011.2 0.0
04/06:29am 18.8 17.3 11.9 64 3.8 N 11 17 6 9 1011.3 1011.2 0.0
04/06:00am 13.5 12.0 9.2 75 2.2 NNE 7 11 4 6 1011.1 1011.0 0.0
04/05:30am 13.4 13.1 8.7 73 2.4 CALM 0 0 0 0 1010.8 1010.7 0.0
04/05:00am 13.9 13.7 9.1 73 2.4 CALM 0 0 0 0 1010.6 1010.5 0.0
04/04:30am 14.9 14.7 9.1 68 3.0 CALM 0 0 0 0 1010.5 1010.4 0.0
04/04:00am 15.1 15.0 9.5 69 2.9 CALM 0 0 0 0 1010.4 1010.3 0.0
04/03:30am 15.8 15.7 9.5 66 3.3 CALM 0 0 0 0 1010.7 1010.6 0.0
04/03:00am 16.5 16.5 9.7 64 3.6 CALM 0 0 0 0 1010.9 1010.8 0.0
04/02:30am 16.7 16.6 9.4 62 3.8 CALM 0 0 0 0 1011.0 1010.9 0.0
04/02:00am 18.4 18.4 9.7 57 4.6 CALM 0 0 0 0 1011.2 1011.1 0.0
04/01:30am 19.7 19.0 8.7 49 5.8 WSW 2 6 1 3 1011.5 1011.4 0.0
04/01:00am 20.1 18.7 8.8 48 5.9 WSW 6 7 3 4 1011.7 1011.6 0.0
04/12:30am 19.5 16.8 9.1 51 5.5 WSW 13 19 7 10 1012.0 1011.9 0.0
04/12:00am 19.0 18.8 9.2 53 5.2 CALM 0 0 0 0 1011.9 1011.8 0.0
 
Date/Time
CDT
Temp
°C
App
Temp
°C
Dew
Point
°C
Rel
Hum
%
Delta-T
°C
Wind Press
QNH
hPa
Press
MSL
hPa
Rain since
9am
mm
Dir  Spd
km/h
Gust
km/h
Spd
kts
Gust
kts
03/11:30pm 19.5 18.1 8.8 50 5.6 NNE 6 9 3 5 1012.0 1011.9 0.0
03/11:00pm 21.2 19.1 8.1 43 6.8 NNE 9 13 5 7 1011.9 1011.8 0.0
03/10:30pm 20.3 18.2 8.3 46 6.3 NNE 9 24 5 13 1011.8 1011.7 0.0
03/10:06pm 20.5 19.5 8.8 47 6.2 W 4 7 2 4 1011.6 1011.5 0.0
03/10:00pm 20.6 19.1 8.6 46 6.3 W 6 7 3 4 1011.6 1011.5 0.0
03/09:30pm 21.2 19.8 9.4 47 6.3 W 7 9 4 5 1011.4 1011.3 0.0
03/09:00pm 23.3 23.0 8.6 39 7.8 CALM 0 0 0 0 1011.1 1011.0 0.0
03/08:30pm 25.1 24.0 8.6 35 8.9 SSW 4 6 2 3 1011.0 1010.9 0.0
03/08:22pm 25.8 24.4 8.8 34 9.2 SSW 6 7 3 4 1010.9 1010.8 0.0
03/08:05pm 28.2 26.6 8.0 28 11.0 SE 6 7 3 4 1010.8 1010.7 0.0
03/08:00pm 28.4 26.6 7.1 26 11.4 SE 6 7 3 4 1010.8 1010.7 0.0
03/07:30pm 30.3 28.3 6.9 23 12.6 SE 7 9 4 5 1010.6 1010.5 0.0
03/07:00pm 31.8 28.9 4.6 18 14.2 SE 9 13 5 7 1010.3 1010.2 0.0
03/06:30pm 32.4 29.0 4.2 17 14.7 SE 11 17 6 9 1010.3 1010.2 0.0
03/06:00pm 32.8 29.0 3.7 16 15.1 SE 13 19 7 10 1010.1 1010.0 0.0
03/05:30pm 33.0 29.2 3.9 16 15.2 SSE 13 19 7 10 1010.2 1010.1 0.0
03/05:00pm 33.1 29.1 4.8 17 15.0 SE 15 22 8 12 1010.4 1010.3 0.0
03/04:30pm 33.2 28.5 3.1 15 15.5 ESE 17 22 9 12 1010.6 1010.5 0.0
03/04:00pm 33.0 28.8 3.9 16 15.1 SSE 15 22 8 12 1010.7 1010.6 0.0
03/03:30pm 33.3 28.9 5.0 17 15.0 SSE 17 24 9 13 1010.9 1010.8 0.0
03/03:00pm 33.3 29.2 4.1 16 15.3 ESE 15 24 8 13 1011.3 1011.2 0.0
03/02:30pm 33.4 28.9 4.2 16 15.3 ESE 17 26 9 14 1011.5 1011.4 0.0
03/02:00pm 33.2 29.2 6.5 19 14.5 SE 17 22 9 12 1011.8 1011.7 0.0
03/01:30pm 32.9 29.7 2.9 15 15.4 N 9 17 5 9 1012.3 1012.2 0.0
03/01:00pm 32.7 28.7 2.7 15 15.3 NW 13 20 7 11 1012.7 1012.6 0.0
03/12:30pm 32.2 28.6 3.2 16 14.8 NNW 11 22 6 12 1013.0 1012.9 0.0
03/12:22pm 31.9 26.8 3.0 16 14.7 NNW 19 30 10 16 1013.1 1013.0 0.0
03/12:00pm 31.9 28.1 3.8 17 14.5 NW 13 24 7 13 1013.4 1013.3 0.0
03/11:57am 31.9 28.1 3.8 17 14.5 N 13 20 7 11 1013.4 1013.3 0.0
03/11:30am 31.5 28.0 7.2 22 13.2 NE 15 24 8 13 1013.6 1013.5 0.0
03/11:00am 31.3 28.0 6.4 21 13.4 NNE 13 24 7 13 1013.8 1013.7 0.0
03/10:30am 29.6 27.1 8.1 26 11.8 N 11 20 6 11 1014.0 1013.9 0.0
03/10:00am 29.0 26.9 8.1 27 11.4 NE 9 17 5 9 1014.1 1014.0 0.0
03/09:30am 27.6 26.2 10.8 35 9.5 ENE 9 13 5 7 1014.1 1014.0 0.0
03/09:00am 26.7 25.8 9.1 33 9.6 ENE 4 7 2 4 1014.2 1014.1 0.0
03/08:30am 25.1 25.1 9.8 38 8.4 CALM 0 0 0 0 1014.2 1014.1 0.0
03/08:00am 21.8 20.8 9.0 44 6.8 NNW 4 9 2 5 1013.9 1013.8 0.0

Other formats

Comma delimited format used in spreadsheet applications
http://www.bom.gov.au/fwo/IDS60801/IDS60801.95687.axf

JavaScript Object Notation format (JSON) in row-major order
http://www.bom.gov.au/fwo/IDS60801/IDS60801.95687.json

Data quality

Most of these data are generated automatically and are frequently updated. Quality checks on data are not normally performed. It is possible for incorrect values to appear. Refer to information at About Latest Weather Observations and please check the disclaimer before using these data.